Time;durP1;ratioP1;P1;durP2;ratioP2;P2;SDS_P1;SDS_P2;PMS_P1;PMS_P2;Temp;Humidity;BMP_temperature;BMP_pressure;BME280_temperature;BME280_humidity;BME280_pressure;Samples;Min_cycle;Max_cycle;Signal;HPM_P1;HPM_P2
2021/11/14 00:00:09;;;;;;;15.35;10.85;;;;;;;5.27;100.00;95696.38;5110590;28;24521;-76
2021/11/14 00:02:35;;;;;;;38.33;9.73;;;;;;;5.27;100.00;95692.06;5110935;28;24425;-75
2021/11/14 00:05:02;;;;;;;18.73;8.97;;;;;;;5.26;100.00;95687.00;5110817;28;24421;-75
2021/11/14 00:07:28;;;;;;;10.43;9.18;;;;;;;5.28;100.00;95687.78;5111016;28;24775;-75
2021/11/14 00:09:55;;;;;;;26.92;8.73;;;;;;;5.27;100.00;95691.25;5111137;28;24436;-75
2021/11/14 00:12:21;;;;;;;25.65;9.60;;;;;;;5.26;100.00;95684.41;5111128;28;24453;-76
2021/11/14 00:14:49;;;;;;;11.05;8.77;;;;;;;5.28;100.00;95686.03;5114539;28;24424;-75
2021/11/14 00:17:16;;;;;;;9.63;8.35;;;;;;;5.32;100.00;95679.88;5108775;28;24434;-75
2021/11/14 00:19:42;;;;;;;12.50;9.77;;;;;;;5.35;100.00;95678.91;5114503;28;24437;-75
2021/11/14 00:22:09;;;;;;;16.35;9.27;;;;;;;5.37;100.00;95677.09;5114341;28;24421;-76
2021/11/14 00:24:35;;;;;;;15.80;9.27;;;;;;;5.38;100.00;95668.50;5114042;28;24433;-75
2021/11/14 00:27:02;;;;;;;17.30;13.10;;;;;;;5.39;100.00;95677.03;5114229;28;24421;-75
2021/11/14 00:29:28;;;;;;;18.23;12.60;;;;;;;5.50;100.00;95674.81;5114617;28;24426;-75
2021/11/14 00:31:57;;;;;;;18.45;10.82;;;;;;;5.40;100.00;95676.13;5114225;28;24448;-75
2021/11/14 00:34:24;;;;;;;17.67;8.70;;;;;;;5.50;100.00;95682.53;5114211;28;24421;-75
2021/11/14 00:36:53;;;;;;;14.98;9.48;;;;;;;5.58;100.00;95686.41;5114003;28;24486;-76
2021/11/14 00:39:20;;;;;;;18.17;11.15;;;;;;;5.62;100.00;95686.28;5113931;28;25015;-75
2021/11/14 00:41:48;;;;;;;33.03;11.47;;;;;;;5.66;100.00;95680.94;5113991;28;24509;-75
2021/11/14 00:44:15;;;;;;;15.90;10.02;;;;;;;5.65;100.00;95681.84;5114199;28;24857;-74
2021/11/14 00:46:42;;;;;;;26.95;10.10;;;;;;;5.58;100.00;95681.28;5113969;28;24413;-75
2021/11/14 00:49:10;;;;;;;15.90;9.95;;;;;;;5.76;100.00;95676.22;5114013;28;24430;-75
2021/11/14 00:51:37;;;;;;;19.67;9.10;;;;;;;5.60;100.00;95676.09;5113816;28;24449;-75
2021/11/14 00:54:05;;;;;;;23.90;10.13;;;;;;;5.48;100.00;95674.03;5114078;28;24417;-75
2021/11/14 00:56:31;;;;;;;37.33;11.47;;;;;;;5.32;100.00;95679.88;5113468;28;24436;-75
2021/11/14 00:58:58;;;;;;;34.40;10.70;;;;;;;5.20;100.00;95684.72;5114007;28;24432;-76
2021/11/14 01:01:25;;;;;;;24.27;10.15;;;;;;;5.15;100.00;95684.88;5113583;28;24792;-75
2021/11/14 01:03:53;;;;;;;14.70;9.82;;;;;;;5.13;100.00;95673.88;5113849;28;24410;-75
2021/11/14 01:06:21;;;;;;;11.50;9.65;;;;;;;5.11;100.00;95683.34;5113289;28;24520;-75
2021/11/14 01:08:48;;;;;;;12.33;10.80;;;;;;;5.11;100.00;95685.91;5113635;28;25023;-75
2021/11/14 01:11:15;;;;;;;11.35;10.15;;;;;;;5.13;100.00;95678.16;5113237;28;25014;-75
2021/11/14 01:13:42;;;;;;;9.90;8.90;;;;;;;5.13;100.00;95684.13;5113757;28;24457;-75
2021/11/14 01:16:12;;;;;;;19.63;9.63;;;;;;;5.13;100.00;95686.69;5113120;28;24421;-75
2021/11/14 01:18:39;;;;;;;12.77;9.15;;;;;;;5.09;100.00;95696.25;5113336;28;24422;-75
2021/11/14 01:21:12;;;;;;;10.23;8.90;;;;;;;5.09;100.00;95693.69;5113136;28;24535;-76
2021/11/14 01:23:40;;;;;;;10.68;9.50;;;;;;;5.10;100.00;95697.91;5113062;28;24519;-75
2021/11/14 01:26:07;;;;;;;13.02;9.77;;;;;;;5.12;100.00;95695.31;5113082;28;24428;-75
2021/11/14 01:28:34;;;;;;;13.98;10.30;;;;;;;5.18;100.00;95697.59;5113321;28;24440;-75
2021/11/14 01:31:00;;;;;;;9.40;8.00;;;;;;;5.24;100.00;95699.06;5112905;28;24437;-75
2021/11/14 01:33:29;;;;;;;11.90;8.60;;;;;;;5.17;100.00;95700.25;5113027;28;24503;-75
2021/11/14 01:35:57;;;;;;;11.63;9.40;;;;;;;5.15;100.00;95699.47;5112608;28;24844;-75
2021/11/14 01:38:26;;;;;;;8.70;7.90;;;;;;;5.15;100.00;95699.47;5113037;28;24414;-76
2021/11/14 01:40:56;;;;;;;11.73;8.95;;;;;;;5.23;100.00;95702.56;5112935;28;24472;-76
2021/11/14 01:43:27;;;;;;;12.85;9.88;;;;;;;5.31;100.00;95698.75;5112954;27;24425;-75
2021/11/14 01:45:54;;;;;;;18.38;10.23;;;;;;;5.36;100.00;95703.69;5112653;28;24430;-75
2021/11/14 01:48:20;;;;;;;15.02;9.38;;;;;;;5.38;100.00;95693.31;5110393;28;24425;-75
2021/11/14 01:50:48;;;;;;;21.67;10.20;;;;;;;5.40;100.00;95702.63;5112654;28;24476;-75
2021/11/14 01:53:15;;;;;;;11.32;10.02;;;;;;;5.61;100.00;95700.03;5113131;28;24437;-75
2021/11/14 01:55:43;;;;;;;16.08;10.00;;;;;;;5.61;100.00;95702.63;5112350;28;24429;-76
2021/11/14 01:58:13;;;;;;;20.98;11.15;;;;;;;5.71;100.00;95706.41;5112571;28;24537;-75
2021/11/14 02:00:43;;;;;;;36.35;10.27;;;;;;;5.50;100.00;95692.81;5112189;28;24452;-75
2021/11/14 02:03:10;;;;;;;27.05;10.27;;;;;;;5.42;100.00;95698.28;5112887;28;24426;-75
2021/11/14 02:05:37;;;;;;;22.50;11.43;;;;;;;5.37;100.00;95695.06;5112230;28;24804;-75
2021/11/14 02:08:06;;;;;;;17.90;10.20;;;;;;;5.26;100.00;95694.69;5112663;28;24413;-76
2021/11/14 02:10:34;;;;;;;26.00;10.18;;;;;;;5.23;100.00;95690.53;5112360;28;24783;-75
2021/11/14 02:13:04;;;;;;;15.93;10.00;;;;;;;5.22;100.00;95695.72;5112417;28;24629;-75
2021/11/14 02:15:33;;;;;;;15.48;9.77;;;;;;;5.17;100.00;95695.94;5111581;28;24819;-75
2021/11/14 02:17:59;;;;;;;10.18;9.18;;;;;;;5.16;100.00;95694.28;5112050;28;24998;-75
2021/11/14 02:20:27;;;;;;;11.35;9.60;;;;;;;5.19;100.00;95695.84;5112443;28;24420;-75
2021/11/14 02:22:54;;;;;;;20.80;13.25;;;;;;;5.25;100.00;95699.00;5112064;28;24420;-77
2021/11/14 02:25:22;;;;;;;23.73;12.88;;;;;;;5.27;100.00;95694.66;5111716;28;24417;-75
2021/11/14 02:27:51;;;;;;;17.93;13.90;;;;;;;5.20;100.00;95694.97;5111915;28;24513;-76
2021/11/14 02:30:21;;;;;;;16.08;13.27;;;;;;;5.17;100.00;95697.66;5112143;28;24780;-75
2021/11/14 02:32:48;;;;;;;26.50;12.60;;;;;;;5.20;100.00;95705.25;5111860;28;24820;-75
2021/11/14 02:35:16;;;;;;;20.52;13.30;;;;;;;5.19;100.00;95706.13;5111204;28;24448;-75
2021/11/14 02:37:44;;;;;;;13.50;12.10;;;;;;;5.21;100.00;95704.34;5111415;28;24874;-75
2021/11/14 02:40:13;;;;;;;26.55;14.73;;;;;;;5.21;100.00;95700.03;5111817;28;24422;-75
2021/11/14 02:42:41;;;;;;;33.90;13.45;;;;;;;5.16;100.00;95693.44;5111535;28;24425;-74
2021/11/14 02:45:10;;;;;;;25.10;11.68;;;;;;;5.16;100.00;95698.56;5111437;28;24422;-76
2021/11/14 02:47:38;;;;;;;22.75;12.10;;;;;;;5.19;100.00;95698.41;5111841;28;24432;-76
2021/11/14 02:50:07;;;;;;;18.50;11.75;;;;;;;5.15;100.00;95708.00;5111429;28;24414;-74
2021/11/14 02:52:33;;;;;;;21.42;11.85;;;;;;;5.19;100.00;95701.84;5111294;28;24440;-76
2021/11/14 02:55:02;;;;;;;11.95;10.75;;;;;;;5.20;100.00;95707.81;5110903;28;24437;-76
2021/11/14 02:57:28;;;;;;;18.83;12.02;;;;;;;5.15;100.00;95700.28;5111590;28;24437;-75
2021/11/14 02:59:55;;;;;;;12.25;10.48;;;;;;;5.14;100.00;95698.63;5111559;28;24425;-76
2021/11/14 03:02:22;;;;;;;11.70;10.60;;;;;;;5.12;100.00;95700.44;5111347;28;24420;-76
2021/11/14 03:04:49;;;;;;;10.40;9.40;;;;;;;5.10;100.00;95703.06;5111409;28;24471;-76
2021/11/14 03:07:15;;;;;;;11.20;10.10;;;;;;;5.14;100.00;95703.75;5111320;28;24425;-76
2021/11/14 03:09:42;;;;;;;9.60;8.70;;;;;;;5.19;100.00;95695.84;5111048;28;24429;-76
2021/11/14 03:12:10;;;;;;;12.13;9.63;;;;;;;5.23;100.00;95695.69;5111190;28;24522;-75
2021/11/14 03:14:37;;;;;;;10.50;8.53;;;;;;;5.25;100.00;95704.13;5110893;28;24428;-76
2021/11/14 03:17:04;;;;;;;8.55;7.70;;;;;;;5.29;100.00;95702.28;5110837;28;24421;-76
2021/11/14 03:19:31;;;;;;;10.27;8.40;;;;;;;5.31;100.00;95703.06;5111146;28;24829;-76
2021/11/14 03:21:57;;;;;;;9.77;8.73;;;;;;;5.34;100.00;95697.78;5110829;28;24413;-76
2021/11/14 03:24:24;;;;;;;9.93;9.02;;;;;;;5.37;100.00;95700.19;5111086;28;24420;-76
2021/11/14 03:26:50;;;;;;;10.00;9.00;;;;;;;5.37;100.00;95704.50;5110826;28;24973;-76
2021/11/14 03:29:18;;;;;;;12.98;9.38;;;;;;;5.33;100.00;95698.66;5111026;28;24421;-76
2021/11/14 03:31:46;;;;;;;10.63;9.10;;;;;;;5.35;100.00;95702.00;5110667;28;24437;-77
2021/11/14 03:34:12;;;;;;;11.77;9.32;;;;;;;5.33;100.00;95703.81;5110881;28;24939;-76
2021/11/14 03:36:39;;;;;;;9.60;8.63;;;;;;;5.34;100.00;95708.06;5110590;28;24440;-76
2021/11/14 03:39:07;;;;;;;11.20;9.43;;;;;;;5.37;100.00;95713.03;5110953;28;24421;-76
2021/11/14 03:41:37;;;;;;;12.73;9.50;;;;;;;5.36;100.00;95708.81;5110808;28;24428;-76
2021/11/14 03:44:05;;;;;;;13.23;9.45;;;;;;;5.33;100.00;95717.47;5110771;28;24425;-76
2021/11/14 03:46:33;;;;;;;15.20;9.35;;;;;;;5.25;100.00;95706.69;5110629;28;24413;-76
2021/11/14 03:49:00;;;;;;;11.50;9.13;;;;;;;5.29;100.00;95707.41;5114605;28;24424;-75
2021/11/14 03:51:27;;;;;;;11.07;8.48;;;;;;;5.43;100.00;95709.38;5114942;28;24813;-75
2021/11/14 03:53:57;;;;;;;12.30;7.68;;;;;;;5.58;100.00;95714.69;5115056;28;24449;-75
2021/11/14 03:56:24;;;;;;;13.90;9.98;;;;;;;5.70;100.00;95720.19;5114726;28;24508;-75
2021/11/14 03:58:50;;;;;;;14.13;9.93;;;;;;;5.45;100.00;95713.56;5115057;28;24510;-75
2021/11/14 04:01:19;;;;;;;13.48;9.48;;;;;;;5.37;100.00;95714.78;5114735;28;24429;-76
2021/11/14 04:03:50;;;;;;;13.75;9.50;;;;;;;5.39;100.00;95718.97;5114560;28;24421;-76
2021/11/14 04:06:17;;;;;;;14.60;10.45;;;;;;;5.25;100.00;95719.53;5114539;28;24425;-76
2021/11/14 04:08:44;;;;;;;24.27;11.90;;;;;;;5.18;100.00;95717.31;5114591;28;24417;-76
2021/11/14 04:11:10;;;;;;;23.13;12.52;;;;;;;5.17;100.00;95715.66;5114635;28;24417;-75
2021/11/14 04:13:37;;;;;;;19.88;13.02;;;;;;;5.18;100.00;95719.88;5114635;28;24833;-75
2021/11/14 04:16:07;;;;;;;14.65;13.15;;;;;;;5.19;100.00;95722.38;5114522;28;24410;-76
2021/11/14 04:18:34;;;;;;;22.30;12.35;;;;;;;5.20;100.00;95726.63;5114722;28;24421;-76
2021/11/14 04:21:03;;;;;;;16.92;13.45;;;;;;;5.16;100.00;95727.66;5114662;28;24950;-77
2021/11/14 04:23:30;;;;;;;22.27;11.75;;;;;;;5.10;100.00;95723.59;5114646;28;24424;-76
2021/11/14 04:25:56;;;;;;;20.67;12.20;;;;;;;5.13;100.00;95725.22;5110303;28;24815;-76
2021/11/14 04:28:23;;;;;;;20.08;10.90;;;;;;;5.07;100.00;95728.84;5103637;28;24819;-75
2021/11/14 04:30:51;;;;;;;13.00;9.95;;;;;;;5.02;100.00;95725.66;5110962;28;24436;-75
2021/11/14 04:33:19;;;;;;;12.45;9.85;;;;;;;5.07;100.00;95736.53;5114489;28;24454;-76
2021/11/14 04:35:47;;;;;;;11.20;9.43;;;;;;;5.13;100.00;95738.03;5109575;28;24441;-76
2021/11/14 04:38:15;;;;;;;10.00;9.07;;;;;;;5.21;100.00;95732.59;5093736;28;24788;-75
2021/11/14 04:40:43;;;;;;;12.60;11.30;;;;;;;5.27;100.00;95735.72;5094029;28;24429;-76
2021/11/14 04:43:12;;;;;;;13.25;11.43;;;;;;;5.24;100.00;95735.03;5093969;28;24777;-76
2021/11/14 04:45:38;;;;;;;12.23;10.88;;;;;;;5.24;100.00;95742.72;5106872;28;24428;-76
2021/11/14 04:48:06;;;;;;;12.60;11.30;;;;;;;5.25;100.00;95740.09;5109845;28;24791;-76
2021/11/14 04:50:33;;;;;;;10.63;9.35;;;;;;;5.26;100.00;95738.34;5114178;28;24460;-75
2021/11/14 04:53:00;;;;;;;16.08;10.82;;;;;;;5.24;100.00;95748.69;5114548;28;24448;-75
2021/11/14 04:55:28;;;;;;;11.87;9.20;;;;;;;5.23;100.00;95739.34;5114197;27;24520;-75
2021/11/14 04:57:55;;;;;;;10.25;9.25;;;;;;;5.26;100.00;95746.06;5114342;28;24966;-75
2021/11/14 05:00:24;;;;;;;15.10;10.15;;;;;;;5.32;100.00;95744.06;5112637;28;24983;-74
2021/11/14 05:02:51;;;;;;;13.30;10.67;;;;;;;5.44;100.00;95750.41;5113522;27;24981;-75
2021/11/14 05:05:18;;;;;;;16.55;9.77;;;;;;;5.53;100.00;95750.03;5113403;28;24425;-75
2021/11/14 05:07:45;;;;;;;29.48;10.43;;;;;;;5.51;100.00;95751.81;5113913;28;24421;-75
2021/11/14 05:10:11;;;;;;;24.48;10.45;;;;;;;5.62;100.00;95755.66;5113994;28;24421;-75
2021/11/14 05:12:40;;;;;;;14.57;10.50;;;;;;;5.62;100.00;95753.91;5113281;28;24453;-76
2021/11/14 05:15:08;;;;;;;12.80;10.53;;;;;;;5.63;100.00;95758.16;5113332;28;24421;-75
2021/11/14 05:17:34;;;;;;;24.13;11.80;;;;;;;5.59;100.00;95762.59;5113416;28;24413;-75
2021/11/14 05:20:01;;;;;;;15.45;10.88;;;;;;;5.61;100.00;95761.72;5113496;28;24412;-75
2021/11/14 05:22:28;;;;;;;12.00;10.80;;;;;;;5.54;100.00;95761.97;5113417;27;24805;-75
2021/11/14 05:24:54;;;;;;;25.00;11.45;;;;;;;5.51;100.00;95762.09;5112931;28;24420;-75
2021/11/14 05:27:20;;;;;;;13.15;11.10;;;;;;;5.54;100.00;95767.09;5113229;27;24962;-75
2021/11/14 05:29:48;;;;;;;17.05;11.48;;;;;;;5.47;100.00;95770.81;5113172;28;24775;-75
2021/11/14 05:32:15;;;;;;;19.40;12.15;;;;;;;5.38;100.00;95771.22;5112868;28;24418;-75
2021/11/14 05:34:41;;;;;;;13.65;10.77;;;;;;;5.34;100.00;95772.25;5113154;28;24444;-75
2021/11/14 05:37:08;;;;;;;12.70;10.88;;;;;;;5.39;100.00;95777.19;5113090;28;24955;-75
2021/11/14 05:39:35;;;;;;;11.90;10.75;;;;;;;5.36;100.00;95780.72;5113020;28;24421;-75
2021/11/14 05:42:02;;;;;;;11.20;10.10;;;;;;;5.36;100.00;95778.16;5113291;28;24429;-75
2021/11/14 05:44:29;;;;;;;13.27;11.93;;;;;;;5.28;100.00;95777.66;5113085;28;24779;-75
2021/11/14 05:46:57;;;;;;;13.03;11.73;;;;;;;5.25;100.00;95788.88;5113241;28;24792;-75
2021/11/14 05:49:23;;;;;;;12.90;11.70;;;;;;;5.28;100.00;95787.91;5113170;28;24418;-75
2021/11/14 05:51:50;;;;;;;13.85;12.10;;;;;;;5.31;100.00;95780.91;5112669;28;24425;-75
2021/11/14 05:54:16;;;;;;;13.55;11.20;;;;;;;5.33;100.00;95788.56;5112998;28;24448;-75
2021/11/14 05:56:43;;;;;;;12.57;11.35;;;;;;;5.30;100.00;95792.09;5112733;28;24440;-76
2021/11/14 05:59:16;;;;;;;12.45;10.40;;;;;;;5.47;100.00;95796.50;5112946;28;24418;-76
2021/11/14 06:01:46;;;;;;;12.90;11.60;;;;;;;5.83;100.00;95799.25;5112773;28;24433;-76
2021/11/14 06:04:22;;;;;;;15.00;11.02;;;;;;;5.64;100.00;95798.38;5112415;28;24951;-76
2021/11/14 06:06:48;;;;;;;11.93;10.75;;;;;;;5.46;100.00;95802.56;5112313;28;24423;-76
2021/11/14 06:09:15;;;;;;;11.65;10.45;;;;;;;5.42;100.00;95801.03;5112695;28;24410;-76
2021/11/14 06:11:41;;;;;;;10.80;9.70;;;;;;;5.39;100.00;95802.88;5112772;28;24429;-75
2021/11/14 06:14:08;;;;;;;11.63;10.43;;;;;;;5.36;100.00;95808.97;5109932;28;24453;-76
2021/11/14 06:16:34;;;;;;;10.27;9.27;;;;;;;5.37;100.00;95810.63;5107555;28;24440;-75
2021/11/14 06:19:01;;;;;;;11.02;9.90;;;;;;;5.41;100.00;95809.59;5108230;28;24804;-75
2021/11/14 06:21:29;;;;;;;14.98;10.88;;;;;;;5.40;100.00;95817.38;5105997;28;24461;-75
2021/11/14 06:23:55;;;;;;;13.55;10.88;;;;;;;5.40;100.00;95813.06;5106557;28;24776;-75
2021/11/14 06:26:23;;;;;;;10.48;9.38;;;;;;;5.34;100.00;95819.31;5111616;28;24426;-76
2021/11/14 06:28:50;;;;;;;10.47;9.47;;;;;;;5.28;100.00;95819.56;5111679;28;24946;-75
2021/11/14 06:31:18;;;;;;;11.90;9.93;;;;;;;5.29;100.00;95822.97;5111657;28;24421;-75
2021/11/14 06:33:44;;;;;;;10.25;9.15;;;;;;;5.34;100.00;95828.75;5111388;28;24446;-75
2021/11/14 06:36:11;;;;;;;10.50;9.40;;;;;;;5.35;100.00;95827.84;5111289;28;24446;-75
2021/11/14 06:38:39;;;;;;;9.98;9.00;;;;;;;5.37;100.00;95826.03;5111602;28;24421;-75
2021/11/14 06:41:06;;;;;;;10.63;9.20;;;;;;;5.48;100.00;95825.59;5111590;28;24428;-75
2021/11/14 06:43:32;;;;;;;11.52;10.10;;;;;;;5.48;100.00;95828.16;5111720;28;24425;-76
2021/11/14 06:45:59;;;;;;;10.95;9.85;;;;;;;5.40;100.00;95836.19;5111348;28;24437;-75
2021/11/14 06:48:25;;;;;;;12.02;10.38;;;;;;;5.86;100.00;95841.97;5111736;28;24418;-75
2021/11/14 06:50:52;;;;;;;12.10;10.15;;;;;;;6.05;100.00;95850.59;5111473;28;24425;-75
2021/11/14 06:53:18;;;;;;;11.63;9.60;;;;;;;5.71;100.00;95842.59;5111612;28;24445;-75
2021/11/14 06:55:46;;;;;;;10.65;9.75;;;;;;;5.56;100.00;95850.09;5111052;28;24428;-75
2021/11/14 06:58:13;;;;;;;11.25;10.18;;;;;;;5.40;100.00;95859.31;5111705;28;24424;-75
2021/11/14 07:00:42;;;;;;;11.55;10.45;;;;;;;5.39;100.00;95856.81;5111145;28;24421;-75
2021/11/14 07:03:09;;;;;;;14.20;12.07;;;;;;;5.37;100.00;95859.44;5111386;28;24954;-75
2021/11/14 07:05:35;;;;;;;15.60;13.93;;;;;;;5.41;100.00;95853.25;5111157;28;24444;-75
2021/11/14 07:08:02;;;;;;;20.37;13.73;;;;;;;5.43;100.00;95851.47;5111694;28;24417;-75
2021/11/14 07:10:28;;;;;;;18.70;13.32;;;;;;;5.46;100.00;95853.94;5111120;28;25021;-75
2021/11/14 07:12:56;;;;;;;15.75;13.48;;;;;;;5.45;100.00;95859.97;5111229;28;24425;-76
2021/11/14 07:15:23;;;;;;;12.90;11.55;;;;;;;5.46;100.00;95863.38;5110743;28;24433;-75
2021/11/14 07:17:50;;;;;;;13.52;12.15;;;;;;;5.50;100.00;95862.34;5111236;28;24787;-75
2021/11/14 07:20:18;;;;;;;19.60;12.27;;;;;;;5.50;100.00;95864.91;5111294;28;24418;-75
2021/11/14 07:22:45;;;;;;;13.77;12.27;;;;;;;5.58;100.00;95875.72;5110463;28;24424;-75
2021/11/14 07:25:14;;;;;;;14.30;12.82;;;;;;;5.60;100.00;95876.50;5110871;28;24996;-76
2021/11/14 07:27:42;;;;;;;13.48;12.27;;;;;;;5.65;100.00;95877.13;5110993;28;24456;-75
2021/11/14 07:30:11;;;;;;;14.52;13.13;;;;;;;5.86;100.00;95885.69;5111161;28;24489;-76
2021/11/14 07:32:39;;;;;;;14.40;12.98;;;;;;;6.02;100.00;95885.88;5111774;28;24496;-76
2021/11/14 07:35:07;;;;;;;15.07;12.83;;;;;;;5.90;100.00;95884.66;5110772;28;25087;-76
2021/11/14 07:37:33;;;;;;;17.17;14.63;;;;;;;5.85;100.00;95878.84;5110930;28;25019;-76
2021/11/14 07:40:00;;;;;;;16.42;13.68;;;;;;;5.79;100.00;95897.94;5110967;28;24418;-75
2021/11/14 07:42:26;;;;;;;15.23;13.65;;;;;;;5.74;100.00;95891.31;5110603;28;24421;-76
2021/11/14 07:44:53;;;;;;;15.07;13.57;;;;;;;5.78;100.00;95900.56;5110765;28;24943;-76
2021/11/14 07:47:21;;;;;;;16.33;14.70;;;;;;;5.75;100.00;95898.97;5111294;28;24417;-75
2021/11/14 07:49:47;;;;;;;17.15;15.10;;;;;;;5.73;100.00;95903.34;5110778;28;24429;-75
2021/11/14 07:52:14;;;;;;;17.13;14.52;;;;;;;5.78;100.00;95908.28;5110797;28;24417;-76
2021/11/14 07:54:40;;;;;;;20.17;15.68;;;;;;;5.78;100.00;95911.69;5110870;28;24444;-76
2021/11/14 07:57:07;;;;;;;18.15;15.23;;;;;;;5.77;100.00;95909.19;5110636;28;24417;-76
2021/11/14 07:59:34;;;;;;;15.33;13.90;;;;;;;5.83;100.00;95908.94;5111252;28;24414;-76
2021/11/14 08:02:00;;;;;;;15.53;14.07;;;;;;;5.83;100.00;95904.63;5110361;28;25043;-76
2021/11/14 08:04:29;;;;;;;15.23;13.63;;;;;;;5.85;100.00;95912.25;5110478;28;24417;-75
2021/11/14 08:06:58;;;;;;;15.48;13.88;;;;;;;5.82;100.00;95910.66;5110618;28;24414;-76
2021/11/14 08:09:24;;;;;;;15.23;13.63;;;;;;;5.77;100.00;95906.59;5110528;28;24833;-76
2021/11/14 08:11:51;;;;;;;14.65;13.18;;;;;;;5.78;100.00;95908.28;5110314;28;24430;-76
2021/11/14 08:14:18;;;;;;;14.47;12.53;;;;;;;5.83;100.00;95914.06;5110666;28;24449;-76
2021/11/14 08:16:44;;;;;;;14.68;13.07;;;;;;;5.75;100.00;95909.25;5110792;28;24416;-76
2021/11/14 08:19:11;;;;;;;14.88;13.35;;;;;;;5.80;100.00;95912.47;5111020;28;24943;-76
2021/11/14 08:21:39;;;;;;;15.05;13.38;;;;;;;5.88;100.00;95913.88;5102126;28;24446;-76
2021/11/14 08:24:06;;;;;;;17.60;13.77;;;;;;;6.06;100.00;95906.25;5102528;28;24788;-76
2021/11/14 08:26:32;;;;;;;14.38;12.85;;;;;;;6.06;100.00;95905.41;5110270;28;24429;-76
2021/11/14 08:28:59;;;;;;;13.85;12.43;;;;;;;6.12;100.00;95909.44;5110122;28;25155;-75
2021/11/14 08:31:25;;;;;;;13.95;12.55;;;;;;;6.08;100.00;95906.16;5099843;28;24437;-76
2021/11/14 08:33:52;;;;;;;13.90;12.40;;;;;;;6.07;100.00;95907.06;5112088;28;24448;-75
2021/11/14 08:36:19;;;;;;;14.05;12.30;;;;;;;6.21;100.00;95909.06;5113843;28;24422;-76
2021/11/14 08:38:48;;;;;;;13.95;12.48;;;;;;;6.39;100.00;95907.44;5113728;28;24414;-76
2021/11/14 08:41:15;;;;;;;14.63;13.18;;;;;;;6.48;100.00;95914.72;5114067;28;24437;-75
2021/11/14 08:43:42;;;;;;;15.80;14.10;;;;;;;6.50;100.00;95911.19;5109323;28;25131;-76
2021/11/14 08:46:10;;;;;;;15.25;13.60;;;;;;;6.59;100.00;95909.94;5109751;28;24437;-76
2021/11/14 08:48:37;;;;;;;14.90;13.40;;;;;;;6.75;100.00;95916.09;5114028;28;24791;-76
2021/11/14 08:51:04;;;;;;;17.67;13.82;;;;;;;6.69;100.00;95921.50;5099296;28;24437;-76
2021/11/14 08:53:31;;;;;;;19.13;13.98;;;;;;;6.97;100.00;95922.81;5093593;28;24951;-76
2021/11/14 08:55:59;;;;;;;17.58;15.70;;;;;;;7.43;100.00;95931.78;5093343;28;24463;-76
2021/11/14 08:58:26;;;;;;;18.30;15.80;;;;;;;7.40;100.00;95929.38;5093544;28;24426;-75
2021/11/14 09:00:53;;;;;;;17.15;15.43;;;;;;;7.21;100.00;95924.25;5093361;28;24418;-75
2021/11/14 09:03:20;;;;;;;18.17;16.38;;;;;;;7.24;100.00;95931.00;5093266;28;24426;-76
2021/11/14 09:05:46;;;;;;;18.25;16.35;;;;;;;7.22;100.00;95933.63;5100669;28;24434;-75
2021/11/14 09:08:13;;;;;;;17.33;15.63;;;;;;;7.35;100.00;95940.81;5113652;28;25023;-76
2021/11/14 09:10:43;;;;;;;23.13;16.08;;;;;;;7.36;100.00;95940.72;5111033;28;24438;-76
2021/11/14 09:13:12;;;;;;;19.35;16.20;;;;;;;7.52;100.00;95940.81;5113577;28;24440;-76
2021/11/14 09:15:39;;;;;;;18.15;16.25;;;;;;;7.26;100.00;95942.06;5112859;28;24494;-76
2021/11/14 09:18:05;;;;;;;17.33;15.55;;;;;;;7.42;100.00;95940.44;5113059;28;24429;-76
2021/11/14 09:20:32;;;;;;;18.08;16.17;;;;;;;7.63;100.00;95942.88;5113284;28;24425;-76
2021/11/14 09:22:59;;;;;;;17.63;15.82;;;;;;;7.44;100.00;95941.19;5113539;28;24417;-76
2021/11/14 09:25:27;;;;;;;18.23;16.33;;;;;;;7.55;100.00;95948.41;5107555;28;24439;-76
2021/11/14 09:27:54;;;;;;;17.17;15.38;;;;;;;7.41;100.00;95954.22;5113058;28;24432;-75
2021/11/14 09:30:23;;;;;;;19.90;17.27;;;;;;;7.31;100.00;95952.16;5113032;28;24421;-75
2021/11/14 09:32:50;;;;;;;19.33;17.02;;;;;;;7.22;100.00;95954.25;5112907;28;24436;-76
2021/11/14 09:35:17;;;;;;;18.13;16.30;;;;;;;7.12;100.00;95953.03;5112898;28;24444;-75
2021/11/14 09:37:43;;;;;;;19.50;17.48;;;;;;;7.09;100.00;95955.75;5113274;28;24425;-75
2021/11/14 09:40:10;;;;;;;18.83;16.92;;;;;;;7.26;100.00;95962.66;5112863;28;24967;-76
2021/11/14 09:42:38;;;;;;;18.55;16.63;;;;;;;7.17;100.00;95961.38;5112851;28;24444;-76
2021/11/14 09:45:06;;;;;;;20.75;17.83;;;;;;;7.11;100.00;95961.63;5112030;28;24443;-76
2021/11/14 09:47:34;;;;;;;20.47;18.03;;;;;;;7.36;100.00;95969.06;5112779;28;24509;-76
2021/11/14 09:50:01;;;;;;;22.17;18.90;;;;;;;7.17;100.00;95958.78;5112917;28;24420;-76
2021/11/14 09:52:28;;;;;;;21.13;18.13;;;;;;;7.24;100.00;95961.91;5112556;28;24803;-75
2021/11/14 09:54:55;;;;;;;19.38;17.40;;;;;;;7.36;100.00;95961.34;5112416;28;24679;-75
2021/11/14 09:57:21;;;;;;;21.58;19.27;;;;;;;7.24;100.00;95969.66;5112728;28;24659;-75
2021/11/14 09:59:48;;;;;;;20.85;18.08;;;;;;;7.56;100.00;95970.69;5112744;28;24512;-76
2021/11/14 10:02:15;;;;;;;18.70;16.73;;;;;;;7.26;100.00;95975.53;5112393;28;24414;-76
2021/11/14 10:04:42;;;;;;;24.45;17.95;;;;;;;7.45;100.00;95978.97;5112338;28;24814;-75
2021/11/14 10:07:12;;;;;;;20.33;17.43;;;;;;;7.79;100.00;95982.50;5112623;28;24786;-76
2021/11/14 10:09:40;;;;;;;20.70;18.50;;;;;;;7.54;100.00;95980.25;5112411;28;24942;-75
2021/11/14 10:12:19;;;;;;;23.08;18.75;;;;;;;7.50;100.00;95983.88;5112260;28;24830;-76
2021/11/14 10:14:47;;;;;;;21.65;19.38;;;;;;;7.37;100.00;95981.03;5111896;28;24841;-75
2021/11/14 10:17:17;;;;;;;25.08;18.17;;;;;;;7.50;100.00;95989.88;5112356;28;24425;-75
2021/11/14 10:19:45;;;;;;;22.35;19.95;;;;;;;7.54;100.00;95988.00;5110181;28;24791;-76
2021/11/14 10:22:11;;;;;;;21.35;19.25;;;;;;;7.21;100.00;95983.50;5109167;28;25044;-75
2021/11/14 10:24:38;;;;;;;21.65;19.45;;;;;;;7.26;100.00;95991.84;5111803;28;24422;-76
2021/11/14 10:27:15;;;;;;;22.02;19.73;;;;;;;7.44;100.00;95987.56;5112018;28;24422;-74
2021/11/14 10:29:47;;;;;;;23.00;20.55;;;;;;;7.24;100.00;95987.69;5112263;28;24471;-75
2021/11/14 10:32:15;;;;;;;21.80;19.42;;;;;;;7.40;100.00;95983.47;5111777;28;24975;-75
2021/11/14 10:34:48;;;;;;;22.10;19.90;;;;;;;7.49;100.00;95988.22;5111499;28;24510;-75
2021/11/14 10:37:14;;;;;;;22.13;19.75;;;;;;;7.66;100.00;95982.25;5111973;28;24410;-75
2021/11/14 10:39:41;;;;;;;21.42;19.23;;;;;;;7.31;100.00;95986.50;5111930;28;24428;-74
2021/11/14 10:42:12;;;;;;;21.30;19.17;;;;;;;7.25;100.00;95987.59;5111950;28;24414;-75
2021/11/14 10:44:46;;;;;;;21.30;18.73;;;;;;;7.55;100.00;95981.09;5111608;28;24491;-74
2021/11/14 10:47:13;;;;;;;24.88;19.83;;;;;;;7.40;100.00;95983.47;5111791;28;24434;-74
2021/11/14 10:49:55;;;;;;;21.73;19.53;;;;;;;7.28;100.00;95977.16;5108976;28;25033;-75
2021/11/14 10:52:22;;;;;;;20.08;18.02;;;;;;;7.12;100.00;95980.50;5102740;28;24440;-74
2021/11/14 10:54:54;;;;;;;21.23;18.98;;;;;;;7.07;100.00;95975.56;5103042;28;24457;-73
2021/11/14 10:57:20;;;;;;;19.60;17.63;;;;;;;7.26;100.00;95975.53;5099854;28;24796;-73
2021/11/14 10:59:48;;;;;;;19.92;17.85;;;;;;;7.33;100.00;95978.69;5100844;28;24434;-73
2021/11/14 11:02:15;;;;;;;20.35;18.20;;;;;;;7.16;100.00;95980.31;5101780;28;24437;-73
2021/11/14 11:04:42;;;;;;;18.40;16.60;;;;;;;7.14;100.00;95976.94;5090078;28;24519;-74
2021/11/14 11:07:12;;;;;;;20.38;18.02;;;;;;;7.19;100.00;95975.03;5090887;28;24800;-74
2021/11/14 11:09:39;;;;;;;21.38;16.27;;;;;;;7.19;100.00;95975.03;5090447;28;24978;-74
2021/11/14 11:12:16;;;;;;;19.07;17.07;;;;;;;7.28;100.00;95972.00;5090556;28;24440;-74
2021/11/14 11:14:53;;;;;;;19.58;17.67;;;;;;;7.39;100.00;95979.22;5096709;28;24481;-73
2021/11/14 11:17:19;;;;;;;20.92;17.23;;;;;;;7.62;100.00;95978.16;5099453;28;24433;-74
2021/11/14 11:19:46;;;;;;;19.08;17.13;;;;;;;7.63;100.00;95978.97;5101571;28;25023;-73